Time;durP1;ratioP1;P1;durP2;ratioP2;P2;SDS_P1;SDS_P2;PMS_P1;PMS_P2;Temp;Humidity;BMP_temperature;BMP_pressure;BME280_temperature;BME280_humidity;BME280_pressure;Samples;Min_cycle;Max_cycle;Signal;HPM_P1;HPM_P2
2022/01/12 00:00:19;;;;;;;;;;;11.60;95.50;;;;;;5061507;28;19926;-61
2022/01/12 00:02:45;;;;;;;;;;;;;;;;;;5059678;28;20023;-60
2022/01/12 00:05:11;;;;;;;;;;;;;;;;;;5052181;28;19931;-64
2022/01/12 00:07:37;;;;;;;;;;;;;;;;;;5061280;28;19920;-65
2022/01/12 00:10:03;;;;;;;;;;;11.80;95.50;;;;;;5060234;28;20023;-64
2022/01/12 00:12:29;;;;;;;;;;;;;;;;;;5060922;28;20012;-66
2022/01/12 00:14:55;;;;;;;;;;;11.70;95.40;;;;;;5052052;28;19921;-66
2022/01/12 00:17:20;;;;;;;;;;;11.50;95.40;;;;;;5060175;28;19927;-62
2022/01/12 00:19:46;;;;;;;;;;;11.60;95.40;;;;;;5056727;28;20281;-61
2022/01/12 00:22:12;;;;;;;;;;;11.80;95.40;;;;;;5039972;28;19931;-63
2022/01/12 00:35:32;;;;;;;;;;;11.90;95.40;;;;;;5065252;28;19924;-61
2022/01/12 00:37:58;;;;;;;;;;;11.60;95.30;;;;;;5047436;28;19972;-61
2022/01/12 00:40:23;;;;;;;;;;;11.40;95.10;;;;;;5053845;28;19929;-61
2022/01/12 00:42:49;;;;;;;;;;;;;;;;;;5043532;28;19964;-65
2022/01/12 00:45:15;;;;;;;;;;;11.30;95.20;;;;;;5055207;28;19920;-64
2022/01/12 00:47:41;;;;;;;;;;;11.30;95.30;;;;;;5056363;28;19975;-61
2022/01/12 00:50:07;;;;;;;;;;;11.60;95.30;;;;;;5046240;28;19924;-62
2022/01/12 00:52:32;;;;;;;;;;;11.60;95.30;;;;;;5050608;28;20401;-61
2022/01/12 00:54:58;;;;;;;;;;;11.30;95.20;;;;;;5043833;28;19967;-61
2022/01/12 00:57:24;;;;;;;;;;;;;;;;;;5056197;28;19921;-63
2022/01/12 00:59:49;;;;;;;;;;;11.70;95.30;;;;;;5052771;28;20413;-61
2022/01/12 01:02:15;;;;;;;;;;;11.50;95.30;;;;;;5052872;28;20018;-61
2022/01/12 01:04:40;;;;;;;;;;;11.70;95.40;;;;;;5055706;28;20289;-61
2022/01/12 01:07:06;;;;;;;;;;;11.30;95.30;;;;;;5037269;28;19936;-64
2022/01/12 01:09:34;;;;;;;;;;;11.30;95.20;;;;;;5040646;28;19932;-61
2022/01/12 01:12:00;;;;;;;;;;;11.60;95.30;;;;;;5046604;28;19927;-62
2022/01/12 01:14:44;;;;;;;;;;;11.40;95.30;;;;;;5055319;28;19921;-61
2022/01/12 01:25:32;;;;;;;;;;;11.60;95.40;;;;;;5055477;28;19925;-61
2022/01/12 01:27:58;;;;;;;;;;;;;;;;;;5055210;28;20389;-61
2022/01/12 01:30:23;;;;;;;;;;;11.30;95.30;;;;;;5040294;28;19927;-64
2022/01/12 01:32:49;;;;;;;;;;;11.50;95.10;;;;;;5041468;28;19921;-62
2022/01/12 01:35:15;;;;;;;;;;;11.50;95.30;;;;;;5043910;28;20362;-63
2022/01/12 01:37:41;;;;;;;;;;;;;;;;;;5036081;28;19931;-64
2022/01/12 01:40:08;;;;;;;;;;;11.50;95.30;;;;;;5045532;28;19921;-62
2022/01/12 01:43:17;;;;;;;;;;;;;;;;;;5066920;28;19921;-62
2022/01/12 01:53:39;;;;;;;;;;;11.30;95.20;;;;;;5023533;28;19920;-62
2022/01/12 01:56:05;;;;;;;;;;;;;;;;;;5053773;28;19928;-64
2022/01/12 01:58:31;;;;;;;;;;;11.60;95.30;;;;;;5035141;28;20221;-62
2022/01/12 02:00:57;;;;;;;;;;;11.40;95.30;;;;;;5040586;28;20293;-61
2022/01/12 02:03:26;;;;;;;;;;;11.30;95.20;;;;;;5052816;28;19928;-65
2022/01/12 02:05:52;;;;;;;;;;;11.60;95.30;;;;;;5053761;28;19927;-63
2022/01/12 02:08:18;;;;;;;;;;;11.50;95.30;;;;;;5045791;28;19921;-62
2022/01/12 02:10:44;;;;;;;;;;;11.70;95.40;;;;;;5034784;28;20000;-61
2022/01/12 02:13:10;;;;;;;;;;;11.70;95.30;;;;;;5040203;28;20396;-62
2022/01/12 02:15:35;;;;;;;;;;;11.40;95.30;;;;;;5034967;28;20485;-62
2022/01/12 02:37:13;;;;;;;;;;;11.40;95.50;;;;;;4991008;28;19922;-64
2022/01/12 02:39:52;;;;;;;;;;;;;;;;;;4976230;28;20265;-65
2022/01/12 02:42:18;;;;;;;;;;;11.50;95.20;;;;;;4969219;28;20498;-60
2022/01/12 02:55:41;;;;;;;;;;;11.60;95.40;;;;;;4973963;28;19929;-61
2022/01/12 02:58:06;;;;;;;;;;;11.50;95.40;;;;;;4958584;28;19953;-61
2022/01/12 03:00:50;;;;;;;;;;;11.70;95.50;;;;;;4983087;28;19917;-62
2022/01/12 03:03:21;;;;;;;;;;;11.50;95.40;;;;;;4969444;28;19922;-63
2022/01/12 03:05:56;;;;;;;;;;;11.50;95.40;;;;;;4974910;28;20381;-62
2022/01/12 03:08:24;;;;;;;;;;;11.50;95.40;;;;;;4976600;28;20356;-61
2022/01/12 03:10:49;;;;;;;;;;;11.50;95.40;;;;;;5011132;28;19917;-61
2022/01/12 03:13:15;;;;;;;;;;;11.50;95.40;;;;;;5052761;28;19927;-63
2022/01/12 03:15:41;;;;;;;;;;;11.60;95.50;;;;;;5040303;28;19925;-64
2022/01/12 03:18:07;;;;;;;;;;;11.40;95.40;;;;;;5037888;28;20386;-64
2022/01/12 03:20:33;;;;;;;;;;;11.60;95.50;;;;;;5053941;28;19921;-64
2022/01/12 03:22:59;;;;;;;;;;;11.40;95.40;;;;;;5049995;28;19920;-61
2022/01/12 03:25:25;;;;;;;;;;;11.60;95.40;;;;;;5052416;28;19927;-61
2022/01/12 03:27:56;;;;;;;;;;;11.60;95.40;;;;;;5052200;28;19916;-62
2022/01/12 03:30:21;;;;;;;;;;;11.50;95.40;;;;;;5052822;28;20290;-61
2022/01/12 03:33:01;;;;;;;;;;;11.30;95.30;;;;;;5052715;28;19927;-62
2022/01/12 03:35:47;;;;;;;;;;;11.50;95.40;;;;;;5046226;28;19921;-64
2022/01/12 03:38:21;;;;;;;;;;;11.30;95.30;;;;;;5036549;28;20370;-63
2022/01/12 03:40:48;;;;;;;;;;;11.60;95.50;;;;;;5043392;28;20362;-61
2022/01/12 03:43:14;;;;;;;;;;;;;;;;;;5022321;28;19927;-62
2022/01/12 03:45:39;;;;;;;;;;;11.70;95.50;;;;;;5048732;28;20015;-61
2022/01/12 03:48:05;;;;;;;;;;;;;;;;;;5052304;28;19920;-61
2022/01/12 03:50:31;;;;;;;;;;;11.40;95.40;;;;;;5053607;28;20011;-61
2022/01/12 03:52:57;;;;;;;;;;;11.60;95.50;;;;;;5038844;28;20359;-61
2022/01/12 03:55:22;;;;;;;;;;;11.50;95.40;;;;;;5035259;28;19929;-61
2022/01/12 03:57:48;;;;;;;;;;;11.60;95.40;;;;;;5039768;28;19932;-62
2022/01/12 04:00:14;;;;;;;;;;;11.60;95.40;;;;;;5049092;28;19916;-61
2022/01/12 04:02:40;;;;;;;;;;;11.40;95.40;;;;;;5036968;28;19943;-62
2022/01/12 04:05:11;;;;;;;;;;;11.20;95.40;;;;;;5035557;28;19921;-61
2022/01/12 04:10:21;;;;;;;;;;;11.40;95.40;;;;;;5055556;28;19920;-66
2022/01/12 04:12:46;;;;;;;;;;;11.40;95.40;;;;;;5015328;28;19963;-61
2022/01/12 04:15:12;;;;;;;;;;;11.30;95.40;;;;;;5046638;28;19927;-66
2022/01/12 04:17:38;;;;;;;;;;;;;;;;;;5056382;28;20007;-62
2022/01/12 04:20:04;;;;;;;;;;;11.30;95.40;;;;;;5074344;28;20019;-64
2022/01/12 04:25:17;;;;;;;;;;;11.60;95.60;;;;;;5037094;28;20259;-63
2022/01/12 04:27:43;;;;;;;;;;;11.40;95.50;;;;;;5049207;28;19917;-61
2022/01/12 04:30:09;;;;;;;;;;;11.40;95.50;;;;;;5044064;28;20421;-64
2022/01/12 04:32:38;;;;;;;;;;;;;;;;;;5018613;28;19948;-66
2022/01/12 04:35:04;;;;;;;;;;;;;;;;;;5056786;28;19963;-67
2022/01/12 04:37:30;;;;;;;;;;;;;;;;;;5056411;28;20375;-61
2022/01/12 04:39:55;;;;;;;;;;;11.50;95.50;;;;;;5054157;28;19960;-65
2022/01/12 04:42:21;;;;;;;;;;;11.40;95.50;;;;;;5047463;28;19932;-65
2022/01/12 04:44:48;;;;;;;;;;;11.40;95.50;;;;;;5048667;28;19920;-63
2022/01/12 04:47:39;;;;;;;;;;;11.40;95.20;;;;;;5044424;28;20374;-64
2022/01/12 04:50:02;;;;;;;;;;;11.40;95.50;;;;;;5037847;28;19928;-65
2022/01/12 04:52:28;;;;;;;;;;;11.20;95.40;;;;;;5041230;28;19916;-66
2022/01/12 04:54:55;;;;;;;;;;;11.30;95.50;;;;;;5055621;28;19921;-62
2022/01/12 04:57:20;;;;;;;;;;;11.30;95.50;;;;;;5056492;28;19932;-62
2022/01/12 05:00:03;;;;;;;;;;;11.40;95.40;;;;;;5053699;28;20397;-63
2022/01/12 05:08:11;;;;;;;;;;;11.40;95.40;;;;;;5038728;28;19974;-63
2022/01/12 05:13:23;;;;;;;;;;;11.40;95.40;;;;;;5033074;28;20399;-64
2022/01/12 05:15:49;;;;;;;;;;;11.40;95.40;;;;;;5048714;28;19924;-65
2022/01/12 05:18:15;;;;;;;;;;;11.30;95.30;;;;;;5053674;28;20432;-66
2022/01/12 05:20:40;;;;;;;;;;;11.30;95.30;;;;;;5053428;28;19970;-64
2022/01/12 05:23:06;;;;;;;;;;;11.20;95.30;;;;;;5053523;28;19932;-63
2022/01/12 05:25:31;;;;;;;;;;;11.00;95.20;;;;;;5053677;28;19925;-63
2022/01/12 05:27:57;;;;;;;;;;;11.30;95.30;;;;;;5036494;28;19967;-64
2022/01/12 05:30:23;;;;;;;;;;;11.30;95.30;;;;;;5040500;28;19920;-64
2022/01/12 05:32:48;;;;;;;;;;;11.30;95.30;;;;;;5024574;28;20007;-64
2022/01/12 05:35:16;;;;;;;;;;;11.40;95.30;;;;;;5039300;28;19929;-63
2022/01/12 05:37:44;;;;;;;;;;;;;;;;;;5049830;28;20048;-66
2022/01/12 05:40:10;;;;;;;;;;;11.40;95.40;;;;;;5036556;28;19921;-64
2022/01/12 05:42:36;;;;;;;;;;;11.20;95.30;;;;;;5013349;28;19927;-64
2022/01/12 05:45:02;;;;;;;;;;;11.40;95.40;;;;;;5047337;28;20003;-67
2022/01/12 05:50:17;;;;;;;;;;;11.30;95.30;;;;;;4936627;29;19961;-62
2022/01/12 05:52:42;;;;;;;;;;;11.20;95.30;;;;;;4935352;29;20017;-63
2022/01/12 05:55:08;;;;;;;;;;;11.10;95.30;;;;;;4910734;29;19931;-65
2022/01/12 05:57:34;;;;;;;;;;;;;;;;;;4916852;29;19959;-64
2022/01/12 06:00:01;;;;;;;;;;;11.60;95.40;;;;;;4918708;29;19987;-65
2022/01/12 06:02:26;;;;;;;;;;;11.30;95.30;;;;;;4917892;29;19923;-64
2022/01/12 06:04:52;;;;;;;;;;;11.00;95.20;;;;;;4933759;29;19951;-65
2022/01/12 06:07:17;;;;;;;;;;;11.20;95.30;;;;;;4916562;29;20333;-62
2022/01/12 06:09:43;;;;;;;;;;;11.20;95.40;;;;;;4933729;29;19926;-64
2022/01/12 06:12:09;;;;;;;;;;;11.20;95.40;;;;;;4934965;29;19978;-63
2022/01/12 06:14:34;;;;;;;;;;;11.20;95.40;;;;;;4935264;29;19961;-64
2022/01/12 06:17:00;;;;;;;;;;;11.10;95.40;;;;;;4929246;29;19970;-65
2022/01/12 06:19:26;;;;;;;;;;;11.30;95.40;;;;;;4934993;29;19951;-62
2022/01/12 06:21:51;;;;;;;;;;;11.30;95.40;;;;;;4934334;29;19930;-63
2022/01/12 06:24:17;;;;;;;;;;;11.20;95.40;;;;;;4934922;29;19990;-64
2022/01/12 06:26:43;;;;;;;;;;;11.30;95.40;;;;;;4967000;28;19932;-64
2022/01/12 06:31:35;;;;;;;;;;;11.50;95.40;;;;;;5054384;28;20382;-66
2022/01/12 06:34:01;;;;;;;;;;;11.10;95.30;;;;;;5054442;28;19924;-62
2022/01/12 06:36:27;;;;;;;;;;;11.40;95.40;;;;;;5047899;28;19928;-60
2022/01/12 06:38:53;;;;;;;;;;;11.30;95.30;;;;;;5046806;28;20397;-61
2022/01/12 06:41:18;;;;;;;;;;;11.30;95.30;;;;;;5062374;28;19921;-61
2022/01/12 06:43:44;;;;;;;;;;;11.40;95.30;;;;;;5043272;28;19928;-62
2022/01/12 06:46:10;;;;;;;;;;;11.30;95.30;;;;;;5044012;28;19921;-61
2022/01/12 06:48:36;;;;;;;;;;;11.20;95.30;;;;;;5043808;28;19928;-61
2022/01/12 06:51:02;;;;;;;;;;;11.30;95.40;;;;;;5016232;28;19967;-62
2022/01/12 06:53:28;;;;;;;;;;;11.40;95.50;;;;;;5038997;28;19921;-60
2022/01/12 06:55:53;;;;;;;;;;;11.10;95.50;;;;;;5043323;28;19967;-61
2022/01/12 06:58:19;;;;;;;;;;;11.30;95.40;;;;;;5052000;28;19920;-64
2022/01/12 07:00:45;;;;;;;;;;;11.40;95.40;;;;;;5049743;28;19959;-65
2022/01/12 07:03:11;;;;;;;;;;;11.30;95.30;;;;;;5049461;28;20341;-61
2022/01/12 07:05:37;;;;;;;;;;;;;;;;;;5055980;28;19920;-64
2022/01/12 07:08:03;;;;;;;;;;;11.10;95.20;;;;;;5038691;28;20282;-62
2022/01/12 07:10:29;;;;;;;;;;;;;;;;;;5048151;28;19920;-64
2022/01/12 07:12:54;;;;;;;;;;;11.40;95.30;;;;;;5053294;28;20058;-67
2022/01/12 07:15:20;;;;;;;;;;;;;;;;;;5053636;28;20011;-70
2022/01/12 07:17:47;;;;;;;;;;;11.20;95.30;;;;;;5051629;28;20012;-62
2022/01/12 07:20:13;;;;;;;;;;;11.20;95.30;;;;;;5051678;28;19990;-62
2022/01/12 07:22:38;;;;;;;;;;;11.10;95.30;;;;;;5053056;28;20003;-68
2022/01/12 07:25:04;;;;;;;;;;;11.30;95.30;;;;;;5053906;28;20383;-62
2022/01/12 07:27:30;;;;;;;;;;;11.30;95.30;;;;;;5053035;28;20312;-63
2022/01/12 07:29:55;;;;;;;;;;;11.00;95.30;;;;;;5050037;28;19929;-65
2022/01/12 07:32:21;;;;;;;;;;;11.20;95.30;;;;;;5051272;28;19924;-63
2022/01/12 07:34:47;;;;;;;;;;;11.20;95.30;;;;;;5050195;28;19939;-65
2022/01/12 07:37:13;;;;;;;;;;;11.20;95.30;;;;;;5040955;28;19967;-67
2022/01/12 07:39:39;;;;;;;;;;;;;;;;;;5054590;28;19921;-68
2022/01/12 07:42:05;;;;;;;;;;;11.30;95.20;;;;;;5052634;28;19975;-66
2022/01/12 07:44:31;;;;;;;;;;;11.40;95.30;;;;;;5049609;28;19947;-70
2022/01/12 07:46:57;;;;;;;;;;;11.40;95.30;;;;;;5048274;28;20381;-70
2022/01/12 07:49:22;;;;;;;;;;;11.50;95.40;;;;;;5056524;28;19920;-68
2022/01/12 07:51:48;;;;;;;;;;;11.30;95.30;;;;;;5055814;28;19931;-69
2022/01/12 07:54:13;;;;;;;;;;;11.40;95.30;;;;;;5060418;28;19920;-66
2022/01/12 07:56:39;;;;;;;;;;;11.10;95.30;;;;;;5039474;28;20374;-66
2022/01/12 07:59:05;;;;;;;;;;;11.40;95.30;;;;;;5025397;28;19955;-66
2022/01/12 08:01:31;;;;;;;;;;;11.40;95.30;;;;;;5037767;28;20020;-68
2022/01/12 08:03:57;;;;;;;;;;;11.60;95.30;;;;;;5044734;28;20012;-70
2022/01/12 08:06:22;;;;;;;;;;;11.30;94.90;;;;;;5055907;28;20373;-68
2022/01/12 08:08:48;;;;;;;;;;;11.20;95.20;;;;;;5037683;28;19932;-66
2022/01/12 08:11:14;;;;;;;;;;;11.30;95.20;;;;;;5046165;28;20332;-61
2022/01/12 08:13:42;;;;;;;;;;;;;;;;;;5055663;28;19956;-70
2022/01/12 08:16:08;;;;;;;;;;;11.30;95.30;;;;;;5050156;28;20324;-65
2022/01/12 08:18:34;;;;;;;;;;;;;;;;;;5041905;28;19947;-67
2022/01/12 08:21:01;;;;;;;;;;;11.30;95.20;;;;;;5057084;28;19920;-70
2022/01/12 08:23:26;;;;;;;;;;;11.60;95.40;;;;;;5035321;28;19944;-69
2022/01/12 08:25:52;;;;;;;;;;;;;;;;;;5047896;28;19921;-66
2022/01/12 08:28:18;;;;;;;;;;;11.60;95.40;;;;;;5021596;28;19920;-70
2022/01/12 08:30:44;;;;;;;;;;;;;;;;;;5056730;28;19962;-69
2022/01/12 08:33:11;;;;;;;;;;;11.50;95.40;;;;;;5056955;28;20328;-70
2022/01/12 08:35:36;;;;;;;;;;;11.50;95.30;;;;;;5048241;28;19921;-70
2022/01/12 08:38:02;;;;;;;;;;;11.20;95.20;;;;;;5047298;28;20285;-61
2022/01/12 08:40:27;;;;;;;;;;;11.40;95.20;;;;;;5063609;28;20484;-62
2022/01/12 08:42:53;;;;;;;;;;;11.40;95.20;;;;;;5076476;28;19916;-62
2022/01/12 08:45:19;;;;;;;;;;;11.50;95.20;;;;;;5052973;28;19944;-61
2022/01/12 08:47:44;;;;;;;;;;;11.40;95.20;;;;;;5036098;28;20367;-61
2022/01/12 08:50:10;;;;;;;;;;;11.30;95.10;;;;;;5029904;28;20121;-62
2022/01/12 08:52:36;;;;;;;;;;;11.50;95.10;;;;;;5056529;28;20413;-61
2022/01/12 08:55:02;;;;;;;;;;;11.40;95.10;;;;;;5056536;28;19939;-61
2022/01/12 08:57:29;;;;;;;;;;;11.60;95.20;;;;;;5055248;28;20445;-62
2022/01/12 08:59:58;;;;;;;;;;;11.40;95.10;;;;;;5055656;28;19920;-63
2022/01/12 09:02:24;;;;;;;;;;;11.50;95.10;;;;;;5053741;28;19921;-68
2022/01/12 09:04:50;;;;;;;;;;;11.20;95.00;;;;;;5055991;28;20019;-70
2022/01/12 09:07:15;;;;;;;;;;;11.40;95.10;;;;;;5056282;28;19927;-64
2022/01/12 09:09:41;;;;;;;;;;;;;;;;;;5055440;28;19924;-67
2022/01/12 09:12:07;;;;;;;;;;;11.10;95.00;;;;;;5050409;28;19920;-66
2022/01/12 09:14:33;;;;;;;;;;;11.50;95.10;;;;;;5056146;28;19921;-69
2022/01/12 09:16:59;;;;;;;;;;;11.60;95.10;;;;;;5056105;28;19921;-65
2022/01/12 09:19:25;;;;;;;;;;;11.60;95.00;;;;;;5044019;28;19921;-65
2022/01/12 09:21:50;;;;;;;;;;;11.50;94.90;;;;;;5026571;28;20000;-61
2022/01/12 09:24:16;;;;;;;;;;;11.50;94.90;;;;;;5035159;28;19987;-61
2022/01/12 09:26:42;;;;;;;;;;;11.60;95.00;;;;;;5035642;28;19921;-62
2022/01/12 09:29:08;;;;;;;;;;;11.90;95.00;;;;;;5035865;28;19921;-61
2022/01/12 09:31:33;;;;;;;;;;;11.30;94.90;;;;;;5034702;28;20386;-64
2022/01/12 09:33:59;;;;;;;;;;;;;;;;;;5019316;28;19968;-64
2022/01/12 09:36:25;;;;;;;;;;;11.80;95.00;;;;;;5023603;28;20012;-64
2022/01/12 09:38:51;;;;;;;;;;;11.60;94.90;;;;;;5015785;28;20012;-65
2022/01/12 09:41:16;;;;;;;;;;;11.80;94.90;;;;;;5016031;28;19945;-64
2022/01/12 09:43:43;;;;;;;;;;;11.70;94.90;;;;;;5022787;28;19976;-64
2022/01/12 09:46:09;;;;;;;;;;;11.70;94.90;;;;;;5035656;28;19921;-65
2022/01/12 09:48:36;;;;;;;;;;;11.70;94.90;;;;;;5035599;28;19921;-64
2022/01/12 09:51:04;;;;;;;;;;;11.70;94.90;;;;;;5035189;28;19921;-64
2022/01/12 09:53:30;;;;;;;;;;;11.40;94.70;;;;;;5031444;28;19929;-65
2022/01/12 09:55:56;;;;;;;;;;;11.60;94.90;;;;;;5035082;28;20298;-65
2022/01/12 09:58:22;;;;;;;;;;;;;;;;;;5035322;28;19921;-66
2022/01/12 10:00:56;;;;;;;;;;;11.60;95.00;;;;;;5016078;28;19925;-66
2022/01/12 10:03:23;;;;;;;;;;;11.80;95.50;;;;;;5015386;28;19944;-66
2022/01/12 10:05:49;;;;;;;;;;;;;;;;;;5027467;28;19921;-66
2022/01/12 10:08:15;;;;;;;;;;;11.60;95.90;;;;;;5026919;28;19924;-66
2022/01/12 10:10:41;;;;;;;;;;;11.90;96.20;;;;;;5031138;28;20291;-65
2022/01/12 10:13:07;;;;;;;;;;;;;;;;;;5033610;28;19924;-66
2022/01/12 10:15:33;;;;;;;;;;;;;;;;;;5034958;28;19921;-66
2022/01/12 10:18:00;;;;;;;;;;;11.80;96.50;;;;;;5035063;28;20355;-66
2022/01/12 10:20:26;;;;;;;;;;;11.80;96.40;;;;;;5034915;28;19991;-65
2022/01/12 10:23:05;;;;;;;;;;;11.90;96.30;;;;;;5041281;28;20367;-64
2022/01/12 10:25:31;;;;;;;;;;;11.60;96.30;;;;;;5034835;28;19958;-67
2022/01/12 10:27:57;;;;;;;;;;;12.00;96.30;;;;;;5035323;28;20414;-62
2022/01/12 10:30:22;;;;;;;;;;;12.10;96.30;;;;;;5034364;28;19921;-62
2022/01/12 10:33:07;;;;;;;;;;;12.10;96.30;;;;;;5039324;28;19967;-61
2022/01/12 10:35:34;;;;;;;;;;;11.90;96.30;;;;;;5054538;28;19946;-62
2022/01/12 10:38:06;;;;;;;;;;;12.10;96.40;;;;;;5054541;28;19920;-62
2022/01/12 10:40:42;;;;;;;;;;;12.20;96.40;;;;;;5054520;28;20324;-62
2022/01/12 10:43:23;;;;;;;;;;;11.60;96.10;;;;;;5052587;28;19928;-64
2022/01/12 10:45:49;;;;;;;;;;;12.00;96.20;;;;;;5036137;28;19921;-63
2022/01/12 10:48:14;;;;;;;;;;;12.00;96.20;;;;;;5036660;28;20004;-62
2022/01/12 10:50:40;;;;;;;;;;;12.10;96.20;;;;;;5054147;28;20374;-63
2022/01/12 10:53:06;;;;;;;;;;;12.00;96.00;;;;;;5043439;28;19921;-62
2022/01/12 10:55:32;;;;;;;;;;;;;;;;;;5038494;28;19921;-61
2022/01/12 10:57:59;;;;;;;;;;;11.90;96.10;;;;;;5033917;28;19921;-62
2022/01/12 11:00:26;;;;;;;;;;;11.90;96.00;;;;;;5034313;28;20735;-62
2022/01/12 11:02:53;;;;;;;;;;;12.00;96.10;;;;;;5034191;28;19921;-62
2022/01/12 11:05:19;;;;;;;;;;;11.80;96.00;;;;;;5017679;28;19956;-62
2022/01/12 11:07:45;;;;;;;;;;;12.00;96.10;;;;;;5033560;28;20004;-62
2022/01/12 11:10:11;;;;;;;;;;;12.00;96.10;;;;;;5033794;28;19971;-63
2022/01/12 11:12:37;;;;;;;;;;;12.00;95.90;;;;;;5034460;28;19921;-61
2022/01/12 11:15:04;;;;;;;;;;;12.20;95.80;;;;;;5034136;28;20035;-62
2022/01/12 11:17:30;;;;;;;;;;;12.10;96.00;;;;;;5052852;28;19928;-62
2022/01/12 11:19:56;;;;;;;;;;;;;;;;;;5053828;28;20286;-63
2022/01/12 11:22:27;;;;;;;;;;;12.10;96.00;;;;;;5053739;28;19921;-62
2022/01/12 11:24:54;;;;;;;;;;;12.30;95.90;;;;;;5035875;28;20382;-62
2022/01/12 11:27:20;;;;;;;;;;;11.90;95.80;;;;;;5052046;28;19995;-62
2022/01/12 11:29:46;;;;;;;;;;;12.00;95.80;;;;;;5053709;28;19963;-62
2022/01/12 11:32:13;;;;;;;;;;;12.00;95.80;;;;;;5035476;28;19925;-62
2022/01/12 11:34:39;;;;;;;;;;;11.90;95.70;;;;;;5052945;28;19921;-62
2022/01/12 11:37:15;;;;;;;;;;;12.10;95.70;;;;;;5053119;28;19921;-61
2022/01/12 11:39:42;;;;;;;;;;;12.10;95.80;;;;;;5053803;28;20349;-61
2022/01/12 11:42:08;;;;;;;;;;;12.20;95.80;;;;;;5053541;28;20294;-64
2022/01/12 11:44:34;;;;;;;;;;;;;;;;;;5053721;28;19921;-67
2022/01/12 11:46:59;;;;;;;;;;;12.10;95.70;;;;;;5053691;28;19928;-65
2022/01/12 11:49:25;;;;;;;;;;;12.00;95.60;;;;;;5052467;28;19925;-62
2022/01/12 11:51:51;;;;;;;;;;;12.30;95.70;;;;;;5052532;28;19971;-63
2022/01/12 11:54:18;;;;;;;;;;;12.40;95.70;;;;;;5053322;28;19921;-61
2022/01/12 11:56:57;;;;;;;;;;;12.20;95.70;;;;;;5053241;28;19920;-66
2022/01/12 11:59:23;;;;;;;;;;;12.00;95.60;;;;;;5040880;28;20345;-66
2022/01/12 12:01:49;;;;;;;;;;;12.30;95.60;;;;;;5034915;28;19971;-64
2022/01/12 12:04:25;;;;;;;;;;;12.20;95.70;;;;;;5033628;28;19921;-65
2022/01/12 12:07:08;;;;;;;;;;;12.30;95.60;;;;;;5033643;28;19976;-61
2022/01/12 12:09:37;;;;;;;;;;;12.20;95.60;;;;;;5016533;28;19968;-62
2022/01/12 12:12:09;;;;;;;;;;;12.20;95.60;;;;;;5049856;28;19923;-66
2022/01/12 12:14:35;;;;;;;;;;;12.40;95.60;;;;;;5053934;28;20003;-62
2022/01/12 12:17:00;;;;;;;;;;;12.60;95.70;;;;;;5053043;28;20023;-64
2022/01/12 12:19:26;;;;;;;;;;;12.00;95.50;;;;;;5056514;28;19920;-63
2022/01/12 12:21:52;;;;;;;;;;;12.20;95.50;;;;;;5031044;28;20378;-65
2022/01/12 12:24:18;;;;;;;;;;;12.10;95.30;;;;;;5051816;28;20378;-63
2022/01/12 12:26:45;;;;;;;;;;;12.10;95.50;;;;;;5034144;28;19920;-65
2022/01/12 12:29:11;;;;;;;;;;;12.10;95.50;;;;;;5051182;28;20058;-63
2022/01/12 12:31:37;;;;;;;;;;;12.20;95.50;;;;;;5056663;28;20011;-61
2022/01/12 12:34:04;;;;;;;;;;;12.20;95.50;;;;;;5047338;28;19932;-61
2022/01/12 12:36:29;;;;;;;;;;;12.30;95.50;;;;;;5054943;28;19920;-61
2022/01/12 12:39:08;;;;;;;;;;;12.20;95.40;;;;;;5036631;28;19921;-62
2022/01/12 12:41:37;;;;;;;;;;;12.40;95.60;;;;;;5053267;28;19920;-61
2022/01/12 12:44:03;;;;;;;;;;;12.20;95.50;;;;;;5053930;28;19920;-61
2022/01/12 12:46:29;;;;;;;;;;;12.30;95.50;;;;;;5054774;28;19917;-62
2022/01/12 12:48:55;;;;;;;;;;;12.30;95.60;;;;;;5056550;28;20384;-61
2022/01/12 12:51:20;;;;;;;;;;;12.20;95.60;;;;;;5056305;28;20027;-62
2022/01/12 12:53:47;;;;;;;;;;;12.50;95.60;;;;;;5047342;28;20016;-62
2022/01/12 12:56:16;;;;;;;;;;;12.10;95.60;;;;;;5054565;28;20256;-61
2022/01/12 12:58:48;;;;;;;;;;;12.60;95.70;;;;;;5055632;28;19927;-62
2022/01/12 13:01:15;;;;;;;;;;;;;;;;;;5037914;28;19968;-62
2022/01/12 13:03:51;;;;;;;;;;;12.50;95.70;;;;;;5038923;28;20081;-61
2022/01/12 13:06:20;;;;;;;;;;;12.00;95.60;;;;;;5038347;28;20401;-61
2022/01/12 13:08:53;;;;;;;;;;;12.40;95.70;;;;;;5056179;28;20011;-61
2022/01/12 13:11:19;;;;;;;;;;;12.40;95.70;;;;;;5055948;28;19928;-61
2022/01/12 13:13:54;;;;;;;;;;;12.50;95.60;;;;;;5049477;28;19921;-61
2022/01/12 13:16:20;;;;;;;;;;;12.30;95.50;;;;;;5049231;28;20015;-68
2022/01/12 13:18:47;;;;;;;;;;;12.40;95.30;;;;;;5018334;28;19968;-67
2022/01/12 13:21:15;;;;;;;;;;;12.40;95.60;;;;;;5056029;28;19924;-61
2022/01/12 13:23:42;;;;;;;;;;;12.30;95.60;;;;;;5055159;28;19928;-61
2022/01/12 13:26:08;;;;;;;;;;;12.50;95.70;;;;;;5056035;28;20012;-61
2022/01/12 13:28:34;;;;;;;;;;;12.20;95.70;;;;;;5054734;28;19927;-61
2022/01/12 13:31:01;;;;;;;;;;;12.40;95.70;;;;;;5054145;28;19924;-61
2022/01/12 13:33:53;;;;;;;;;;;12.50;95.70;;;;;;5054754;28;20000;-61
2022/01/12 13:36:19;;;;;;;;;;;;;;;;;;4975440;28;19922;-61
2022/01/12 13:38:48;;;;;;;;;;;12.50;95.70;;;;;;4975459;28;19922;-61
2022/01/12 13:41:15;;;;;;;;;;;12.30;95.70;;;;;;4956357;28;20088;-61
2022/01/12 13:43:43;;;;;;;;;;;12.60;95.80;;;;;;4974598;28;19917;-61
2022/01/12 13:46:13;;;;;;;;;;;12.30;95.70;;;;;;4974390;28;19969;-61
2022/01/12 13:48:42;;;;;;;;;;;12.60;95.70;;;;;;4974458;28;19956;-61
2022/01/12 13:51:07;;;;;;;;;;;12.50;95.80;;;;;;4972987;28;19930;-60
2022/01/12 13:53:34;;;;;;;;;;;;;;;;;;4974671;28;20287;-61
2022/01/12 13:55:59;;;;;;;;;;;12.10;95.80;;;;;;4975072;28;19922;-60
2022/01/12 13:58:25;;;;;;;;;;;12.50;95.60;;;;;;4974364;28;19945;-62
2022/01/12 14:00:57;;;;;;;;;;;12.50;95.90;;;;;;4974351;28;19926;-60
2022/01/12 14:03:24;;;;;;;;;;;12.40;95.90;;;;;;4957611;28;19922;-61
2022/01/12 14:05:58;;;;;;;;;;;12.40;95.90;;;;;;4954911;29;20012;-61
2022/01/12 14:08:29;;;;;;;;;;;12.50;95.90;;;;;;4955292;28;19922;-61
2022/01/12 14:10:54;;;;;;;;;;;12.50;95.90;;;;;;4955615;29;19922;-62
2022/01/12 14:13:30;;;;;;;;;;;12.20;95.80;;;;;;5013702;28;19931;-60
2022/01/12 14:15:56;;;;;;;;;;;;;;;;;;5054729;28;20012;-66
2022/01/12 14:18:22;;;;;;;;;;;;;;;;;;5054977;28;19956;-61
2022/01/12 14:20:48;;;;;;;;;;;12.20;95.80;;;;;;5054683;28;20019;-60
2022/01/12 14:23:15;;;;;;;;;;;12.30;95.80;;;;;;5053686;28;19927;-62
2022/01/12 14:25:49;;;;;;;;;;;12.10;95.80;;;;;;5041761;28;19947;-60
2022/01/12 14:28:26;;;;;;;;;;;12.30;95.80;;;;;;5034907;28;19917;-61
2022/01/12 14:30:51;;;;;;;;;;;12.30;95.90;;;;;;5034411;28;20367;-66
2022/01/12 14:33:17;;;;;;;;;;;12.40;95.90;;;;;;5034757;28;19924;-67
2022/01/12 14:35:43;;;;;;;;;;;12.30;95.90;;;;;;5053409;28;19976;-66
2022/01/12 14:38:09;;;;;;;;;;;;;;;;;;5054428;28;19927;-65
2022/01/12 14:40:35;;;;;;;;;;;12.30;95.90;;;;;;5049551;28;19975;-64
2022/01/12 14:43:01;;;;;;;;;;;12.10;95.80;;;;;;5043602;28;19963;-66
2022/01/12 14:45:28;;;;;;;;;;;12.30;95.90;;;;;;5053634;28;20394;-67
2022/01/12 14:47:55;;;;;;;;;;;12.30;95.90;;;;;;5054410;28;20289;-66
2022/01/12 14:50:20;;;;;;;;;;;12.50;96.00;;;;;;5054998;28;20274;-61
2022/01/12 14:52:46;;;;;;;;;;;12.40;96.00;;;;;;5051190;28;19916;-61
2022/01/12 14:55:12;;;;;;;;;;;12.20;96.00;;;;;;5034981;28;19967;-61
2022/01/12 14:57:38;;;;;;;;;;;12.20;96.00;;;;;;5052728;28;19920;-61
2022/01/12 15:00:05;;;;;;;;;;;12.40;96.10;;;;;;5053223;28;20011;-61
2022/01/12 15:02:32;;;;;;;;;;;12.30;96.10;;;;;;5053904;28;19971;-61
2022/01/12 15:04:58;;;;;;;;;;;12.10;96.00;;;;;;5040301;28;19921;-61
2022/01/12 15:07:24;;;;;;;;;;;12.30;96.10;;;;;;5016011;28;19925;-62
2022/01/12 15:09:49;;;;;;;;;;;12.20;96.10;;;;;;5033906;28;20341;-62
2022/01/12 15:12:23;;;;;;;;;;;12.20;96.10;;;;;;5033892;28;19974;-61
2022/01/12 15:14:59;;;;;;;;;;;12.10;96.10;;;;;;5038455;28;19921;-61
2022/01/12 15:17:28;;;;;;;;;;;12.00;96.00;;;;;;5035566;28;20024;-63
2022/01/12 15:19:57;;;;;;;;;;;12.10;96.10;;;;;;5053692;28;19920;-61
2022/01/12 15:22:23;;;;;;;;;;;11.90;96.00;;;;;;5053746;28;19943;-61
2022/01/12 15:24:49;;;;;;;;;;;12.00;96.00;;;;;;5052006;28;19929;-63
2022/01/12 15:27:15;;;;;;;;;;;12.10;96.10;;;;;;5053046;28;19920;-60
2022/01/12 15:29:41;;;;;;;;;;;12.10;96.10;;;;;;5053790;28;19928;-61
2022/01/12 15:32:07;;;;;;;;;;;12.40;96.20;;;;;;5052123;28;20387;-61
2022/01/12 15:34:33;;;;;;;;;;;12.10;96.10;;;;;;5033843;28;19921;-62
2022/01/12 15:36:59;;;;;;;;;;;12.30;96.20;;;;;;5033825;28;20351;-62
2022/01/12 15:39:24;;;;;;;;;;;12.20;96.10;;;;;;5033482;28;20290;-60
2022/01/12 15:41:51;;;;;;;;;;;12.30;96.20;;;;;;5033839;28;19925;-62
2022/01/12 15:44:17;;;;;;;;;;;12.10;96.30;;;;;;5033561;28;19933;-62
2022/01/12 15:46:43;;;;;;;;;;;12.30;96.20;;;;;;5039288;28;20011;-61
2022/01/12 15:49:08;;;;;;;;;;;12.30;96.20;;;;;;5051591;28;20011;-62